Time;durP1;ratioP1;P1;durP2;ratioP2;P2;SDS_P1;SDS_P2;PMS_P1;PMS_P2;Temp;Humidity;BMP_temperature;BMP_pressure;BME280_temperature;BME280_humidity;BME280_pressure;Samples;Min_cycle;Max_cycle;Signal;HPM_P1;HPM_P2
2022/10/18 00:00:02;;;;;;;59.47;27.10;;;;;;;7.26;95.38;96212.66;5114167;28;20568;-77
2022/10/18 00:02:28;;;;;;;49.13;26.67;;;;;;;7.35;94.37;96209.91;5113703;28;20291;-76
2022/10/18 00:04:55;;;;;;;57.37;27.60;;;;;;;7.50;93.76;96199.75;5109028;28;20212;-77
2022/10/18 00:07:22;;;;;;;47.93;28.00;;;;;;;7.50;93.09;96186.81;5105341;28;20231;-78
2022/10/18 00:09:50;;;;;;;55.87;26.70;;;;;;;7.59;92.64;96206.53;5110320;28;20652;-79
2022/10/18 00:12:17;;;;;;;49.77;27.17;;;;;;;7.52;92.36;96195.22;5106252;28;20210;-79
2022/10/18 00:14:43;;;;;;;49.77;26.70;;;;;;;7.52;92.69;96192.63;5115143;28;20208;-78
2022/10/18 00:17:10;;;;;;;48.13;25.87;;;;;;;7.59;92.08;96191.00;5110078;28;20208;-79
2022/10/18 00:19:37;;;;;;;47.27;25.23;;;;;;;7.59;92.40;96191.00;5105754;28;20204;-79
2022/10/18 00:22:04;;;;;;;41.30;22.73;;;;;;;7.54;91.88;96192.47;5113863;28;20671;-76
2022/10/18 00:24:31;;;;;;;39.80;20.17;;;;;;;7.46;92.06;96184.72;5114338;28;20204;-76
2022/10/18 00:26:59;;;;;;;39.87;20.50;;;;;;;7.43;91.66;96175.50;5113590;28;20220;-76
2022/10/18 00:29:25;;;;;;;44.60;21.30;;;;;;;7.46;91.35;96177.75;5113530;28;20264;-76
2022/10/18 00:31:52;;;;;;;36.20;20.67;;;;;;;7.51;91.15;96167.72;5113355;28;20291;-75
2022/10/18 00:34:19;;;;;;;33.73;20.50;;;;;;;7.42;91.55;96168.69;5112515;28;20553;-75
2022/10/18 00:36:46;;;;;;;35.60;20.13;;;;;;;7.37;91.54;96160.63;5112685;28;20628;-76
2022/10/18 00:39:15;;;;;;;36.17;19.67;;;;;;;7.38;91.13;96163.06;5107260;28;20196;-76
2022/10/18 00:41:42;;;;;;;29.30;16.70;;;;;;;7.13;91.25;96161.38;5113522;28;20239;-76
2022/10/18 00:44:42;;;;;;;30.47;16.90;;;;;;;6.58;92.82;96162.88;5112944;28;20203;-75
2022/10/18 00:47:12;;;;;;;32.33;18.53;;;;;;;6.29;98.62;96158.84;5112441;28;20227;-76
2022/10/18 00:49:43;;;;;;;32.70;18.00;;;;;;;6.42;98.47;96160.22;5113473;28;20199;-75
2022/10/18 00:52:13;;;;;;;30.43;17.93;;;;;;;6.51;97.36;96149.75;5112487;28;20626;-80
2022/10/18 00:54:42;;;;;;;33.67;17.20;;;;;;;6.64;96.55;96157.06;5094494;28;20204;-79
2022/10/18 00:57:10;;;;;;;31.63;17.27;;;;;;;6.76;95.34;96151.47;5109783;28;20200;-79
2022/10/18 00:59:38;;;;;;;27.53;15.40;;;;;;;6.86;94.71;96153.91;5107035;28;20204;-80
2022/10/18 01:02:06;;;;;;;28.50;16.07;;;;;;;6.90;94.06;96147.44;5105540;28;20663;-80
2022/10/18 01:04:35;;;;;;;31.40;14.67;;;;;;;6.91;93.30;96148.25;5106431;28;20200;-79
2022/10/18 01:07:10;;;;;;;22.67;13.10;;;;;;;6.90;92.18;96144.09;5113267;28;20228;-78
2022/10/18 01:09:41;;;;;;;27.23;15.63;;;;;;;6.88;92.59;96140.81;5106684;28;20204;-78
2022/10/18 01:12:19;;;;;;;25.37;13.43;;;;;;;6.85;93.05;96132.44;5112923;28;20211;-79
2022/10/18 01:14:52;;;;;;;23.97;13.30;;;;;;;6.89;92.67;96135.50;5112994;28;20206;-79
2022/10/18 01:17:25;;;;;;;25.77;14.20;;;;;;;6.90;92.57;96128.56;5099818;28;20686;-76
2022/10/18 01:20:08;;;;;;;24.57;13.33;;;;;;;6.81;92.91;96125.94;5112954;28;20200;-76
2022/10/18 01:22:39;;;;;;;21.17;13.73;;;;;;;6.88;92.06;96128.72;5111448;28;20643;-80
2022/10/18 01:25:20;;;;;;;22.83;14.47;;;;;;;6.89;92.42;96130.34;5106442;28;20574;-80
2022/10/18 01:27:56;;;;;;;23.90;13.90;;;;;;;6.89;92.34;96137.28;5111083;28;20226;-78
2022/10/18 01:30:49;;;;;;;25.43;13.00;;;;;;;6.86;92.11;96133.25;5107973;28;20200;-76
2022/10/18 01:33:26;;;;;;;19.73;11.60;;;;;;;6.90;91.71;96126.78;5107698;28;20374;-76
2022/10/18 01:35:58;;;;;;;21.80;12.50;;;;;;;6.81;91.93;96125.16;5108685;28;20228;-80
2022/10/18 01:38:26;;;;;;;21.60;13.23;;;;;;;6.46;91.84;96120.22;5110414;28;20219;-79
2022/10/18 01:40:56;;;;;;;21.93;11.70;;;;;;;6.05;93.70;96125.19;5105311;28;20228;-79
2022/10/18 01:43:24;;;;;;;18.50;10.97;;;;;;;5.95;97.63;96131.41;5108497;28;20260;-79
2022/10/18 01:45:54;;;;;;;16.17;10.23;;;;;;;6.03;96.98;96126.31;5110231;28;20289;-79
2022/10/18 01:48:21;;;;;;;21.37;11.43;;;;;;;5.96;97.20;96120.13;5108159;28;20220;-79
2022/10/18 01:50:48;;;;;;;17.27;10.20;;;;;;;6.14;96.38;96120.88;5109419;28;20200;-79
2022/10/18 01:53:23;;;;;;;17.27;10.30;;;;;;;6.19;96.44;96119.47;5104724;28;20206;-79
2022/10/18 01:56:03;;;;;;;19.13;10.20;;;;;;;6.26;95.05;96117.84;5105601;28;20728;-80
2022/10/18 01:58:37;;;;;;;18.97;10.63;;;;;;;6.31;95.01;96111.44;5106264;28;20674;-79
2022/10/18 02:01:11;;;;;;;18.57;10.47;;;;;;;6.34;95.24;96119.69;5111869;28;20181;-78
2022/10/18 02:03:45;;;;;;;18.63;10.60;;;;;;;6.35;95.12;96105.78;5099060;28;20196;-79
2022/10/18 02:06:20;;;;;;;22.53;10.20;;;;;;;6.44;94.19;96125.50;5102034;28;20218;-81
2022/10/18 02:08:52;;;;;;;17.53;10.33;;;;;;;6.52;93.50;96109.25;5112521;28;20609;-80
2022/10/18 02:11:19;;;;;;;19.40;10.60;;;;;;;6.50;93.47;96109.41;5113163;28;20188;-81
2022/10/18 02:13:51;;;;;;;18.90;10.50;;;;;;;6.46;93.63;96108.13;5112058;28;20211;-81
2022/10/18 02:16:23;;;;;;;20.47;12.27;;;;;;;6.43;93.49;96095.53;5107342;28;20928;-80
2022/10/18 02:18:55;;;;;;;21.47;11.50;;;;;;;6.49;92.90;96100.06;5092033;28;20196;-80
2022/10/18 02:21:24;;;;;;;19.37;11.13;;;;;;;6.43;92.84;96111.00;5098584;28;20196;-81
2022/10/18 02:23:52;;;;;;;17.17;10.50;;;;;;;6.37;93.55;96110.81;5112167;28;20265;-76
2022/10/18 02:26:19;;;;;;;18.03;10.83;;;;;;;6.18;93.86;96111.84;5111308;28;20864;-76
2022/10/18 02:28:46;;;;;;;18.93;10.90;;;;;;;5.85;94.60;96104.91;5110897;28;20231;-76
2022/10/18 02:31:20;;;;;;;20.13;11.80;;;;;;;5.45;98.40;96101.09;5111170;28;20200;-76
2022/10/18 02:33:56;;;;;;;19.70;11.20;;;;;;;5.53;99.60;96103.75;5111224;28;20205;-76
2022/10/18 02:36:26;;;;;;;19.83;11.63;;;;;;;5.62;99.59;96097.69;5105386;28;20653;-76
2022/10/18 02:38:56;;;;;;;21.77;12.47;;;;;;;5.77;98.10;96108.25;5110890;28;20685;-76
2022/10/18 02:41:24;;;;;;;18.47;11.67;;;;;;;5.85;97.60;96107.47;5110592;28;20236;-76
2022/10/18 02:43:51;;;;;;;22.97;11.70;;;;;;;5.90;97.25;96103.50;5110897;28;20241;-76
2022/10/18 02:46:18;;;;;;;18.60;11.90;;;;;;;6.01;95.92;96107.59;5110836;28;20218;-77
2022/10/18 02:48:45;;;;;;;20.07;11.87;;;;;;;6.06;95.07;96113.91;5104696;28;20221;-79
2022/10/18 02:51:13;;;;;;;18.70;11.73;;;;;;;6.13;95.26;96111.50;5105302;28;20679;-80
2022/10/18 02:53:40;;;;;;;20.60;10.40;;;;;;;6.08;95.38;96117.16;5110811;28;20661;-76
2022/10/18 02:56:07;;;;;;;18.37;10.50;;;;;;;6.11;95.88;96105.72;5111761;28;20204;-79
2022/10/18 02:58:34;;;;;;;18.10;11.07;;;;;;;6.12;95.30;96115.88;5099290;28;20228;-79
2022/10/18 03:01:01;;;;;;;16.27;11.10;;;;;;;6.16;95.12;96117.19;5110491;28;20588;-80
2022/10/18 03:03:28;;;;;;;18.80;11.60;;;;;;;6.15;94.89;96102.66;5092426;28;20208;-80
2022/10/18 03:05:55;;;;;;;18.97;11.17;;;;;;;6.18;94.88;96109.28;5111064;28;20203;-80
2022/10/18 03:08:23;;;;;;;18.50;12.00;;;;;;;6.20;94.35;96110.72;5104286;28;20219;-79
2022/10/18 03:10:50;;;;;;;18.87;11.70;;;;;;;6.25;93.61;96108.53;5110250;28;20200;-77
2022/10/18 03:13:17;;;;;;;18.83;11.90;;;;;;;6.22;93.42;96108.00;5109520;28;20207;-76
2022/10/18 03:15:43;;;;;;;22.13;12.67;;;;;;;6.23;93.71;96105.25;5109908;28;20268;-76
2022/10/18 03:18:10;;;;;;;19.87;12.27;;;;;;;5.92;93.03;96099.00;5109735;28;20643;-76
2022/10/18 03:20:37;;;;;;;19.07;12.83;;;;;;;5.29;95.32;96100.97;5103895;28;20255;-77
2022/10/18 03:23:05;;;;;;;22.17;13.70;;;;;;;4.90;100.00;96102.25;5109500;28;20211;-73
2022/10/18 03:25:34;;;;;;;22.17;12.07;;;;;;;5.02;100.00;96104.44;5111385;28;20310;-73
2022/10/18 03:28:01;;;;;;;19.03;10.50;;;;;;;4.97;100.00;96103.28;5114302;28;20263;-73
2022/10/18 03:30:28;;;;;;;19.37;11.47;;;;;;;5.03;100.00;96095.78;5113982;28;20574;-73
2022/10/18 03:32:54;;;;;;;22.57;11.67;;;;;;;5.19;100.00;96108.00;5113046;28;20213;-74
2022/10/18 03:35:22;;;;;;;24.50;14.03;;;;;;;5.33;100.00;96110.03;5106748;28;20688;-75
2022/10/18 03:37:49;;;;;;;26.00;14.10;;;;;;;5.41;99.78;96098.97;5113805;28;20235;-73
2022/10/18 03:40:16;;;;;;;22.67;12.70;;;;;;;5.53;99.04;96103.75;5106565;28;20238;-71
2022/10/18 03:42:44;;;;;;;23.77;12.43;;;;;;;5.58;98.47;96105.84;5113298;28;20206;-74
2022/10/18 03:45:11;;;;;;;24.27;14.17;;;;;;;5.63;97.97;96101.03;5113495;28;20230;-73
2022/10/18 03:47:38;;;;;;;25.07;15.20;;;;;;;5.68;97.73;96114.31;5113148;28;20717;-71
2022/10/18 03:50:05;;;;;;;29.57;16.20;;;;;;;5.71;97.61;96112.22;5114016;28;20241;-71
2022/10/18 03:52:32;;;;;;;35.33;16.20;;;;;;;5.77;96.67;96110.00;5107418;28;20215;-70
2022/10/18 03:54:59;;;;;;;32.47;16.50;;;;;;;5.82;96.27;96115.50;5113126;28;20207;-71
2022/10/18 03:57:25;;;;;;;24.77;15.90;;;;;;;5.88;96.10;96122.69;5113536;28;20260;-73
2022/10/18 03:59:54;;;;;;;26.27;16.03;;;;;;;5.85;95.86;96120.38;5113244;28;20200;-70
2022/10/18 04:02:20;;;;;;;25.17;15.13;;;;;;;5.84;95.47;96116.16;5113275;28;20206;-70
2022/10/18 04:04:48;;;;;;;27.57;16.23;;;;;;;5.80;95.30;96115.66;5112646;28;20257;-70
2022/10/18 04:07:15;;;;;;;34.97;16.57;;;;;;;5.78;95.73;96115.00;5112461;28;20203;-71
2022/10/18 04:09:42;;;;;;;30.10;16.37;;;;;;;5.43;95.94;96102.19;5112875;28;20277;-71
2022/10/18 04:12:09;;;;;;;32.90;16.20;;;;;;;5.00;96.83;96108.94;5112808;28;20207;-71
2022/10/18 04:14:35;;;;;;;34.63;17.77;;;;;;;4.73;100.00;96110.78;5112863;28;20214;-75
2022/10/18 04:17:04;;;;;;;31.37;19.63;;;;;;;4.80;100.00;96112.63;5112150;28;20199;-74
2022/10/18 04:19:31;;;;;;;34.90;19.70;;;;;;;4.90;100.00;96112.56;5113031;28;20258;-72
2022/10/18 04:21:57;;;;;;;38.70;20.50;;;;;;;4.91;100.00;96109.81;5113724;28;20203;-73
2022/10/18 04:24:24;;;;;;;43.67;20.33;;;;;;;5.04;100.00;96105.13;5114190;28;20199;-74
2022/10/18 04:26:51;;;;;;;46.83;21.97;;;;;;;5.05;100.00;96093.84;5113556;28;20208;-76
2022/10/18 04:29:18;;;;;;;44.40;21.33;;;;;;;5.21;100.00;96115.56;5113045;28;20235;-75
2022/10/18 04:31:45;;;;;;;40.67;22.97;;;;;;;5.26;99.12;96103.03;5113135;28;20206;-73
2022/10/18 04:34:13;;;;;;;43.63;24.10;;;;;;;5.39;98.84;96112.00;5112414;28;20646;-73
2022/10/18 04:36:40;;;;;;;63.07;29.60;;;;;;;5.48;97.74;96105.94;5113012;28;20207;-74
2022/10/18 04:39:06;;;;;;;78.10;40.83;;;;;;;5.43;97.89;96108.16;5113302;28;20284;-73
2022/10/18 04:41:33;;;;;;;110.17;58.70;;;;;;;5.45;97.76;96108.03;5112273;28;20288;-73
2022/10/18 04:44:00;;;;;;;129.20;65.97;;;;;;;5.42;98.19;96109.13;5112978;28;20206;-73
2022/10/18 04:46:27;;;;;;;126.83;66.23;;;;;;;5.40;98.67;96105.06;5112622;28;20211;-73
2022/10/18 04:48:54;;;;;;;116.50;60.73;;;;;;;5.41;98.28;96104.94;5112326;28;20758;-74
2022/10/18 04:51:22;;;;;;;106.70;50.93;;;;;;;5.45;98.56;96105.44;5113074;28;20203;-74
2022/10/18 04:53:49;;;;;;;87.43;44.90;;;;;;;5.45;98.34;96095.13;5112948;28;20578;-73
2022/10/18 04:56:16;;;;;;;90.27;46.13;;;;;;;5.48;98.46;96098.19;5113031;28;20199;-73
2022/10/18 04:58:43;;;;;;;96.03;46.73;;;;;;;5.48;99.00;96094.84;5112711;28;20252;-73
2022/10/18 05:01:14;;;;;;;100.50;48.87;;;;;;;5.59;97.80;96097.97;5111819;28;20203;-74
2022/10/18 05:03:41;;;;;;;115.03;52.90;;;;;;;5.66;97.90;96091.25;5106447;28;20225;-72
2022/10/18 05:06:08;;;;;;;114.27;52.27;;;;;;;5.73;96.86;96089.69;5109732;28;20206;-71
2022/10/18 05:08:37;;;;;;;106.43;54.10;;;;;;;5.61;97.22;96092.66;5113288;28;20212;-71
2022/10/18 05:11:04;;;;;;;109.40;54.70;;;;;;;5.69;97.03;96096.09;5112859;28;20287;-74
2022/10/18 05:13:31;;;;;;;110.80;53.87;;;;;;;5.69;96.91;96093.50;5112699;28;20653;-77
2022/10/18 05:15:59;;;;;;;123.30;57.33;;;;;;;5.71;96.85;96090.78;5113702;28;20244;-80
2022/10/18 05:18:26;;;;;;;118.23;60.50;;;;;;;5.68;96.92;96079.00;5110835;28;20200;-79
2022/10/18 05:20:53;;;;;;;134.83;64.13;;;;;;;5.78;96.25;96094.38;5109476;28;20204;-78
2022/10/18 05:23:19;;;;;;;130.37;64.67;;;;;;;5.77;96.80;96089.38;5112501;28;20263;-78
2022/10/18 05:25:48;;;;;;;141.73;65.67;;;;;;;5.78;97.81;96090.97;5112766;28;20207;-74
2022/10/18 05:28:15;;;;;;;130.83;68.80;;;;;;;5.79;97.52;96090.03;5112444;28;20572;-76
2022/10/18 05:30:42;;;;;;;140.27;71.30;;;;;;;5.76;97.95;96090.31;5102362;28;20214;-73
2022/10/18 05:33:09;;;;;;;142.57;73.30;;;;;;;5.87;97.23;96096.06;5112308;28;20200;-73
2022/10/18 05:35:36;;;;;;;138.10;70.67;;;;;;;5.90;96.52;96093.19;5112537;28;20247;-73
2022/10/18 05:38:04;;;;;;;127.73;63.87;;;;;;;5.95;96.72;96097.88;5112213;28;20215;-73
2022/10/18 05:40:31;;;;;;;118.47;53.90;;;;;;;5.98;96.24;96102.72;5111956;28;20236;-74
2022/10/18 05:42:59;;;;;;;73.93;41.63;;;;;;;5.93;96.09;96097.22;5111647;28;20215;-73
2022/10/18 05:45:26;;;;;;;80.90;44.57;;;;;;;5.90;97.11;96110.44;5105275;28;20215;-73
2022/10/18 05:47:53;;;;;;;76.67;37.47;;;;;;;5.95;96.53;96097.88;5111380;28;20207;-73
2022/10/18 05:50:19;;;;;;;58.63;34.10;;;;;;;5.96;96.24;96096.91;5111394;28;20215;-73
2022/10/18 05:52:46;;;;;;;61.37;31.00;;;;;;;6.06;96.05;96105.38;5111091;28;20200;-72
2022/10/18 05:55:13;;;;;;;41.53;24.27;;;;;;;6.05;96.03;96109.72;5111135;28;20247;-74
2022/10/18 05:57:40;;;;;;;38.97;18.73;;;;;;;6.00;96.67;96101.59;5111341;28;20200;-72
2022/10/18 06:00:10;;;;;;;37.27;18.20;;;;;;;6.07;96.03;96101.81;5111229;28;20260;-76
2022/10/18 06:02:37;;;;;;;33.50;17.03;;;;;;;6.16;95.90;96108.63;5104535;28;20196;-74
2022/10/18 06:05:04;;;;;;;34.97;17.53;;;;;;;6.30;95.39;96105.47;5110096;28;20234;-72
2022/10/18 06:07:31;;;;;;;28.37;14.30;;;;;;;6.33;94.37;96104.34;5110585;28;20673;-74
2022/10/18 06:09:58;;;;;;;27.33;14.13;;;;;;;6.35;94.30;96108.38;5110492;28;20235;-74
2022/10/18 06:12:24;;;;;;;27.13;14.87;;;;;;;6.35;94.33;96110.16;5111164;28;20204;-75
2022/10/18 06:14:51;;;;;;;26.17;13.73;;;;;;;6.37;94.24;96098.72;5110769;28;20212;-74
2022/10/18 06:17:19;;;;;;;23.73;13.47;;;;;;;6.49;94.15;96109.56;5111070;28;20757;-74
2022/10/18 06:19:46;;;;;;;25.57;14.20;;;;;;;6.51;93.95;96110.22;5109902;28;20214;-73
2022/10/18 06:22:13;;;;;;;25.97;14.93;;;;;;;6.57;94.25;96101.84;5099560;28;20204;-74
2022/10/18 06:24:40;;;;;;;25.67;16.07;;;;;;;6.56;94.54;96103.63;5111323;28;20207;-74
2022/10/18 06:27:08;;;;;;;29.80;15.87;;;;;;;6.63;94.31;96098.63;5111528;28;20619;-73
2022/10/18 06:29:35;;;;;;;37.30;18.03;;;;;;;6.65;94.03;96102.69;5111228;28;20603;-78
2022/10/18 06:32:01;;;;;;;35.80;18.47;;;;;;;6.72;94.45;96100.28;5111627;28;20208;-80
2022/10/18 06:34:30;;;;;;;29.47;18.07;;;;;;;6.81;94.18;96102.69;5097145;28;20262;-80
2022/10/18 06:37:03;;;;;;;37.77;19.03;;;;;;;6.52;93.52;96050.66;5162650;22;20235;-96
2022/10/18 06:39:33;;;;;;;37.40;18.80;;;;;;;6.73;94.11;96082.03;5095028;28;20208;-93
2022/10/18 06:43:48;;;;;;;33.40;20.40;;;;;;;6.76;93.91;96076.53;4591206;27;15064586;-91
2022/10/18 06:49:08;;;;;;;37.70;22.13;;;;;;;7.06;94.43;96106.13;5086315;22;20225;-79
2022/10/18 06:51:35;;;;;;;39.73;23.40;;;;;;;7.09;94.54;96108.41;5097606;28;20211;-78
2022/10/18 06:54:02;;;;;;;38.77;22.10;;;;;;;7.18;94.35;96114.41;5091022;28;20266;-78
2022/10/18 06:56:29;;;;;;;35.10;20.13;;;;;;;7.21;94.35;96106.31;5094390;28;20258;-78
2022/10/18 06:58:57;;;;;;;35.87;21.07;;;;;;;7.28;94.12;96113.25;5093912;28;20716;-78
2022/10/18 07:01:24;;;;;;;36.70;20.00;;;;;;;7.34;93.31;96110.03;5093687;28;20201;-77
2022/10/18 07:03:53;;;;;;;32.87;19.87;;;;;;;7.39;92.50;96099.19;5098153;28;20199;-78
2022/10/18 07:06:21;;;;;;;33.70;19.73;;;;;;;7.43;92.02;96095.31;5091743;28;20193;-76
2022/10/18 07:08:49;;;;;;;39.63;19.20;;;;;;;7.53;92.08;96106.31;5097279;28;20222;-78
2022/10/18 07:11:18;;;;;;;38.07;19.20;;;;;;;7.59;92.16;96113.41;5098641;28;20662;-77
2022/10/18 07:13:45;;;;;;;33.30;18.77;;;;;;;7.63;91.08;96113.88;5093830;28;20201;-76
2022/10/18 07:16:16;;;;;;;30.10;18.40;;;;;;;7.66;90.97;96109.19;5098234;28;20211;-76
2022/10/18 07:18:44;;;;;;;30.53;17.50;;;;;;;7.58;91.59;96101.44;5097249;28;20207;-76
2022/10/18 07:21:13;;;;;;;34.27;18.93;;;;;;;7.72;90.42;96093.03;5097058;28;20192;-76
2022/10/18 07:23:41;;;;;;;30.47;18.97;;;;;;;7.89;90.32;96104.13;5094681;28;20197;-76
2022/10/18 07:26:14;;;;;;;32.80;18.30;;;;;;;7.99;89.79;96097.00;5097407;28;20203;-79
2022/10/18 07:28:41;;;;;;;33.40;18.40;;;;;;;8.04;88.40;96097.31;5093765;28;20611;-79
2022/10/18 07:31:09;;;;;;;32.07;18.07;;;;;;;8.09;88.91;96099.38;5097494;28;20192;-79
2022/10/18 07:33:38;;;;;;;31.30;18.40;;;;;;;8.08;89.33;96090.03;5099189;28;20247;-79
2022/10/18 08:42:23;;;;;;;36.43;17.17;;;;;;;12.25;68.86;96001.31;4994889;22;20224;-78
2022/10/18 08:44:51;;;;;;;29.43;16.93;;;;;;;12.77;66.42;96012.91;5038953;28;20596;-76
2022/10/18 08:47:20;;;;;;;27.57;16.57;;;;;;;13.16;65.65;96014.81;5032667;28;20199;-77
2022/10/18 08:49:50;;;;;;;32.10;16.77;;;;;;;13.55;62.88;96009.56;5032904;28;20190;-77
2022/10/18 08:52:28;;;;;;;29.57;17.27;;;;;;;13.88;62.63;96005.09;5032861;28;20191;-78
2022/10/18 08:55:01;;;;;;;29.03;16.97;;;;;;;14.30;60.05;96011.59;5033226;28;20260;-77
2022/10/18 08:57:31;;;;;;;38.33;17.13;;;;;;;14.65;58.93;95999.81;5032199;28;20663;-77
2022/10/18 08:59:58;;;;;;;31.37;16.80;;;;;;;15.03;57.80;96010.25;5032322;28;20281;-76
2022/10/18 09:02:44;;;;;;;36.73;18.17;;;;;;;15.49;55.90;96006.50;5032389;28;20219;-77
2022/10/18 09:05:22;;;;;;;31.37;16.40;;;;;;;15.79;54.98;96000.38;5031739;28;20249;-77
2022/10/18 09:08:08;;;;;;;37.13;16.60;;;;;;;16.21;52.83;96009.22;5032372;28;20183;-77
2022/10/18 09:10:54;;;;;;;31.50;17.27;;;;;;;16.16;51.92;96005.66;5031956;28;20694;-78
2022/10/18 09:14:02;;;;;;;38.27;17.37;;;;;;;16.58;52.23;96001.31;5045369;28;20202;-77
2022/10/18 09:16:39;;;;;;;35.63;16.77;;;;;;;16.94;50.79;96001.25;5016705;28;20202;-76
2022/10/18 09:19:19;;;;;;;32.53;17.17;;;;;;;17.37;49.33;95995.75;5051942;28;20206;-77
2022/10/18 09:21:51;;;;;;;26.17;15.77;;;;;;;17.82;48.13;95994.19;5052607;28;20193;-77
2022/10/18 09:24:26;;;;;;;24.30;15.53;;;;;;;18.33;46.83;96005.78;5051772;28;20647;-77
2022/10/18 09:26:58;;;;;;;30.53;15.90;;;;;;;18.71;45.54;95995.50;5051729;28;20632;-77
2022/10/18 09:29:47;;;;;;;25.03;15.07;;;;;;;18.99;44.50;96002.59;5052068;28;20622;-77
2022/10/18 09:32:27;;;;;;;27.92;17.05;;;;;;;19.05;43.10;95994.53;5051770;28;20197;-77
2022/10/18 09:34:58;;;;;;;30.45;16.38;;;;;;;19.37;42.43;95994.00;5052125;28;20240;-77
2022/10/18 09:37:29;;;;;;;26.65;16.27;;;;;;;19.66;42.10;95983.16;5051518;28;20593;-77
2022/10/18 09:40:04;;;;;;;28.15;16.45;;;;;;;20.18;41.50;96002.09;5051259;28;20190;-76
2022/10/18 09:42:36;;;;;;;26.10;15.57;;;;;;;20.51;39.79;95989.84;5051439;28;20229;-77
2022/10/18 09:45:13;;;;;;;23.42;15.05;;;;;;;20.86;38.84;95985.75;5051825;28;20202;-76
2022/10/18 09:47:47;;;;;;;24.60;14.82;;;;;;;20.90;37.47;95988.69;5054524;28;20201;-75
2022/10/18 09:50:21;;;;;;;25.33;14.77;;;;;;;20.51;38.49;95985.38;5062698;28;20734;-75
2022/10/18 09:52:55;;;;;;;25.27;15.13;;;;;;;20.38;39.26;95981.25;5071126;28;20181;-76
2022/10/18 09:55:29;;;;;;;30.17;13.88;;;;;;;20.68;38.62;95972.88;5071148;28;20671;-76
2022/10/18 09:58:00;;;;;;;25.92;14.48;;;;;;;21.34;37.22;95984.09;5071851;28;20190;-77
2022/10/18 10:00:33;;;;;;;26.42;14.60;;;;;;;21.85;36.14;95982.59;5072060;28;20182;-77
2022/10/18 10:03:01;;;;;;;28.48;14.40;;;;;;;22.24;35.67;95967.22;5071880;28;20202;-79
2022/10/18 10:05:28;;;;;;;25.00;14.13;;;;;;;22.52;34.56;95970.25;5072407;28;20248;-79
2022/10/18 10:08:01;;;;;;;24.13;15.00;;;;;;;22.69;33.58;95967.41;5072000;28;20673;-78
2022/10/18 10:10:30;;;;;;;27.52;14.63;;;;;;;22.49;33.87;95959.38;5071857;28;20208;-78
2022/10/18 10:13:04;;;;;;;21.95;12.98;;;;;;;22.53;34.76;95950.66;5061407;28;20194;-77
2022/10/18 10:15:32;;;;;;;21.00;13.13;;;;;;;23.05;34.28;95955.84;5051372;28;20232;-77
2022/10/18 10:18:04;;;;;;;20.70;12.60;;;;;;;23.61;32.95;95939.91;5051662;28;20199;-78
2022/10/18 10:20:35;;;;;;;26.98;12.35;;;;;;;24.32;33.04;95934.44;5051731;28;20256;-77
2022/10/18 10:23:08;;;;;;;25.88;12.13;;;;;;;24.93;30.45;95932.28;5050656;28;20698;-76
2022/10/18 10:25:37;;;;;;;19.73;11.35;;;;;;;24.73;30.51;95928.63;5051558;28;20260;-77
2022/10/18 10:28:07;;;;;;;19.05;11.00;;;;;;;24.26;30.15;95926.50;5051296;28;20241;-78
2022/10/18 10:30:36;;;;;;;17.17;10.48;;;;;;;24.17;31.29;95922.00;5051353;28;20201;-76
2022/10/18 10:33:05;;;;;;;20.55;10.90;;;;;;;24.69;31.37;95919.63;5051454;28;20197;-77
2022/10/18 10:35:35;;;;;;;20.73;11.23;;;;;;;25.24;30.65;95915.00;5051370;28;20208;-79
2022/10/18 10:38:02;;;;;;;18.75;11.23;;;;;;;25.34;30.32;95906.91;5050797;28;20206;-78
2022/10/18 10:40:30;;;;;;;21.35;10.50;;;;;;;25.95;29.43;95907.13;5051816;28;20550;-78
2022/10/18 10:43:07;;;;;;;16.42;9.25;;;;;;;26.30;27.99;95900.63;5050891;28;20653;-78
2022/10/18 10:45:37;;;;;;;16.25;9.70;;;;;;;26.30;27.92;95888.09;5051382;28;20193;-78
2022/10/18 10:48:15;;;;;;;18.17;8.70;;;;;;;26.43;27.80;95882.06;5051212;28;20624;-78
2022/10/18 10:51:01;;;;;;;15.48;7.82;;;;;;;26.16;27.41;95876.53;5051259;28;20690;-79
2022/10/18 10:53:39;;;;;;;18.63;8.60;;;;;;;26.12;28.89;95872.06;5051108;28;20252;-78
2022/10/18 10:56:14;;;;;;;14.30;8.23;;;;;;;26.13;27.75;95865.63;5051295;28;20182;-78
2022/10/18 10:58:41;;;;;;;13.85;8.38;;;;;;;26.67;28.36;95871.31;5050859;28;20563;-78
2022/10/18 11:01:32;;;;;;;12.63;8.07;;;;;;;26.90;27.82;95859.78;5051397;28;20208;-78
2022/10/18 11:04:02;;;;;;;22.33;8.27;;;;;;;27.03;26.65;95864.38;5050964;28;20202;-78
2022/10/18 11:06:50;;;;;;;14.40;8.23;;;;;;;27.25;26.75;95860.28;5051322;28;20252;-79
2022/10/18 11:09:27;;;;;;;17.55;7.82;;;;;;;27.50;26.51;95860.66;5050936;28;20182;-77
2022/10/18 11:12:02;;;;;;;15.25;7.20;;;;;;;27.37;25.72;95855.25;5050651;28;20182;-78
2022/10/18 11:14:32;;;;;;;13.65;6.70;;;;;;;27.57;24.98;95852.25;5062242;28;20200;-78
2022/10/18 11:17:12;;;;;;;14.05;7.00;;;;;;;27.40;25.73;95836.78;5050861;28;20249;-78
2022/10/18 11:20:02;;;;;;;15.68;6.75;;;;;;;27.54;26.15;95850.19;5050586;28;20224;-78
2022/10/18 11:22:35;;;;;;;12.85;5.75;;;;;;;27.46;24.60;95835.63;5050746;28;20225;-78
2022/10/18 11:25:03;;;;;;;14.73;6.30;;;;;;;27.96;24.93;95831.19;5051692;28;20405;-77
2022/10/18 11:27:36;;;;;;;16.17;8.27;;;;;;;28.29;23.96;95831.06;5050702;28;20232;-77
2022/10/18 11:30:33;;;;;;;11.40;5.68;;;;;;;28.70;23.98;95826.41;5054110;28;20218;-77
2022/10/18 11:33:11;;;;;;;12.45;5.60;;;;;;;28.67;23.03;95809.06;5054665;28;20194;-78
2022/10/18 11:35:50;;;;;;;8.48;5.22;;;;;;;29.10;23.34;95814.72;5053610;28;20708;-78
2022/10/18 11:38:31;;;;;;;13.38;5.93;;;;;;;29.40;23.28;95798.97;5054566;28;20198;-78
2022/10/18 11:41:09;;;;;;;6.75;4.60;;;;;;;29.83;21.51;95799.97;5054084;28;20210;-78
2022/10/18 11:43:47;;;;;;;6.32;3.60;;;;;;;29.76;20.53;95794.22;5053837;28;20321;-78
2022/10/18 11:46:22;;;;;;;8.07;3.20;;;;;;;30.07;20.40;95800.31;5054025;28;20197;-78
2022/10/18 11:49:03;;;;;;;5.45;3.00;;;;;;;30.45;20.70;95802.47;5053982;28;20269;-77
2022/10/18 11:51:38;;;;;;;6.05;3.38;;;;;;;30.56;19.32;95793.00;5053835;28;20198;-78
2022/10/18 11:54:20;;;;;;;6.53;4.03;;;;;;;30.67;19.91;95795.03;5053798;28;20824;-80
2022/10/18 11:56:54;;;;;;;7.60;3.78;;;;;;;30.67;20.08;95789.66;5054027;28;20535;-78
2022/10/18 11:59:29;;;;;;;8.77;4.07;;;;;;;30.73;19.58;95777.66;5053775;28;20194;-79
2022/10/18 12:02:15;;;;;;;3.88;3.17;;;;;;;30.78;18.44;95769.44;5054039;28;20185;-79
2022/10/18 12:04:49;;;;;;;5.43;2.72;;;;;;;30.76;18.29;95776.22;5053511;28;20607;-79
2022/10/18 12:07:22;;;;;;;8.93;3.13;;;;;;;30.97;18.18;95768.31;5053806;28;20339;-78
2022/10/18 12:09:52;;;;;;;6.18;3.00;;;;;;;30.44;17.72;95760.63;5053899;28;20194;-78
2022/10/18 12:12:25;;;;;;;6.28;2.70;;;;;;;30.33;18.19;95755.53;5053952;28;20213;-78
2022/10/18 12:14:55;;;;;;;5.40;2.72;;;;;;;30.69;17.84;95749.84;5053719;28;20554;-78
2022/10/18 12:17:34;;;;;;;5.70;3.25;;;;;;;31.00;18.28;95748.88;5054843;28;20187;-78
2022/10/18 12:20:05;;;;;;;8.73;2.97;;;;;;;31.32;17.81;95746.38;5053412;28;20205;-78
2022/10/18 12:22:38;;;;;;;5.50;2.67;;;;;;;31.61;17.40;95739.47;5053404;28;20201;-79
2022/10/18 12:25:10;;;;;;;8.38;2.50;;;;;;;31.82;16.87;95735.72;5053896;28;20190;-78
2022/10/18 12:27:40;;;;;;;5.22;2.38;;;;;;;31.83;16.09;95736.53;5053718;28;20213;-78
2022/10/18 12:30:17;;;;;;;18.83;3.97;;;;;;;31.71;16.19;95733.75;5053936;28;20660;-78
2022/10/18 12:32:45;;;;;;;11.73;3.92;;;;;;;32.14;16.03;95739.66;5054066;28;20185;-78
2022/10/18 12:35:16;;;;;;;5.00;2.75;;;;;;;32.45;15.57;95729.25;5053104;28;20190;-78
2022/10/18 12:38:10;;;;;;;11.25;3.08;;;;;;;32.83;15.45;95723.72;5053070;28;20248;-79
2022/10/18 12:40:41;;;;;;;8.13;2.20;;;;;;;33.19;14.67;95735.72;5053224;28;20691;-78
2022/10/18 12:43:10;;;;;;;12.55;6.38;;;;;;;33.36;14.73;95724.72;5052998;28;20230;-78
2022/10/18 12:45:49;;;;;;;4.90;2.47;;;;;;;33.55;14.02;95712.25;5053046;28;20198;-78
2022/10/18 12:48:32;;;;;;;4.60;2.67;;;;;;;33.93;14.59;95721.91;5052980;28;20563;-79
2022/10/18 12:51:04;;;;;;;4.18;2.15;;;;;;;34.33;14.30;95721.94;5053415;28;20248;-78